Latest Weather Observations for Brisbane

IDQ60801

Issued at 6:02 pm EST Thursday 30 July 2015 (issued every 30 minutes, with the page automatically refreshed every 10 minutes)

About weather observations | Map of weather stations | Latest weather observations for QLD | Other Formats
Station Details ID: 040913 Name: BRISBANE Lat: -27.48 Lon: 153.04 Height: 8.13 m
Data from the previous 72 hours. | See also: Recent months at Brisbane
Date/Time
EST
Temp
°C
App
Temp
°C
Dew
Point
Rel
Hum
%
Delta-T
°C
Wind Press
QNH
hPa
Press
MSL
hPa
Rain
since 9 am
mm
Dir
 
Spd
km/h
Gust
km/h
Spd
kts
Gust
kts
30/06:00pm 16.6 16.8 11.7 73 2.6 NE 2 4 1 2 1024.7 1024.7 0.0
30/05:30pm 17.6 17.7 11.6 68 3.3 NNE 2 6 1 3 1024.6 1024.6 0.0
30/05:00pm 18.7 18.1 11.8 64 3.8 ENE 6 9 3 5 1024.1 1024.1 0.0
30/04:30pm 19.6 18.3 11.4 59 4.5 ENE 9 13 5 7 1023.7 1023.7 0.0
30/04:00pm 20.1 18.8 11.3 57 4.8 ENE 9 17 5 9 1023.7 1023.7 0.0
30/03:30pm 21.0 19.9 10.8 52 5.6 ENE 7 13 4 7 1023.7 1023.7 0.0
30/03:00pm 21.9 20.9 10.4 48 6.3 ENE 6 13 3 7 1024.0 1024.0 0.0
30/02:30pm 22.1 21.1 10.3 47 6.4 NNE 6 9 3 5 1024.4 1024.4 0.0
30/02:00pm 22.1 21.9 10.6 48 6.3 NNE 2 9 1 5 1024.5 1024.5 0.0
30/01:30pm 21.7 20.6 10.8 50 6.0 NE 7 13 4 7 1024.8 1024.8 0.0
30/01:00pm 21.3 21.2 10.8 51 5.7 NNW 2 6 1 3 1025.3 1025.3 0.0
30/12:30pm 21.9 22.1 11.9 53 5.6 NNE 2 7 1 4 1025.7 1025.7 0.0
30/12:00pm 21.2 20.8 11.2 53 5.5 SW 4 9 2 5 1026.4 1026.4 0.0
30/11:30am 20.6 20.2 11.0 54 5.3 WSW 4 9 2 5 1027.1 1027.1 0.0
30/11:00am 19.4 18.5 10.7 57 4.7 WSW 6 11 3 6 1027.6 1027.6 0.0
30/10:30am 18.2 16.7 9.3 56 4.7 WSW 7 13 4 7 1028.1 1028.1 0.0
30/10:00am 17.8 16.5 9.2 57 4.5 SW 6 11 3 6 1028.3 1028.3 0.0
30/09:30am 16.1 14.1 7.3 56 4.4 SW 7 13 4 7 1028.5 1028.5 0.0
30/09:00am 15.2 13.3 7.5 60 3.8 SW 7 13 4 7 1028.5 1028.5 0.0
30/08:30am 13.8 12.0 7.3 65 3.2 SW 6 11 3 6 1028.3 1028.3 0.0
30/08:00am 12.5 10.7 7.2 70 2.5 SW 6 11 3 6 1028.0 1028.0 0.0
30/07:30am 11.3 9.5 7.2 76 2.0 SW 6 11 3 6 1027.9 1027.9 0.0
30/07:00am 10.3 8.8 7.0 80 1.5 WSW 4 9 2 5 1027.6 1027.6 0.0
30/06:30am 10.4 9.0 7.3 81 1.5 SW 4 6 2 3 1027.4 1027.4 0.0
30/06:00am 10.7 9.3 7.2 79 1.7 SSW 4 7 2 4 1027.3 1027.3 0.0
30/05:30am 11.1 9.7 7.2 77 1.9 SW 4 6 2 3 1027.2 1027.2 0.0
30/05:00am 11.4 9.9 6.7 73 2.2 WSW 4 9 2 5 1027.3 1027.3 0.0
30/04:30am 12.0 10.1 6.9 71 2.4 WSW 6 13 3 7 1027.0 1027.0 0.0
30/04:00am 12.8 11.7 7.0 68 2.8 SW 2 6 1 3 1027.6 1027.6 0.0
30/03:30am 12.6 11.6 7.5 71 2.5 WSW 2 6 1 3 1027.7 1027.7 0.0
30/03:00am 12.5 11.5 7.2 70 2.5 WSW 2 6 1 3 1028.0 1028.0 0.0
30/02:30am 11.9 10.7 6.6 70 2.5 WSW 2 4 1 2 1028.1 1028.1 0.0
30/02:00am 12.1 10.9 6.6 69 2.6 SW 2 4 1 2 1028.1 1028.1 0.0
30/01:30am 12.7 10.9 7.0 68 2.7 SW 6 9 3 5 1028.5 1028.5 0.0
30/01:00am 12.8 12.2 7.5 70 2.6 CALM 0 2 0 1 1028.6 1028.6 0.0
30/12:30am 13.0 11.7 7.5 69 2.7 SW 4 6 2 3 1028.8 1028.8 0.0
30/12:00am 12.7 11.5 8.2 74 2.2 SW 4 7 2 4 1029.3 1029.3 0.0
 
Date/Time
EST
Temp
°C
App
Temp
°C
Dew
Point
Rel
Hum
%
Delta-T
°C
Wind Press
QNH
hPa
Press
MSL
hPa
Rain
since 9 am
mm
Dir
 
Spd
km/h
Gust
km/h
Spd
kts
Gust
kts
29/11:30pm 12.3 11.1 8.2 76 2.0 WSW 4 7 2 4 1029.7 1029.7 0.0
29/11:00pm 12.0 11.1 9.2 83 1.4 W 4 4 2 2 1029.6 1029.6 0.0
29/10:30pm 11.4 11.0 8.3 81 1.5 CALM 0 2 0 1 1029.7 1029.7 0.0
29/10:00pm 11.0 10.3 8.4 84 1.3 WSW 2 4 1 2 1029.7 1029.7 0.0
29/09:30pm 10.6 10.2 8.2 85 1.2 CALM 0 0 0 0 1029.6 1029.6 0.0
29/09:00pm 10.8 10.3 8.0 83 1.3 CALM 0 0 0 0 1029.5 1029.5 0.0
29/08:30pm 11.4 11.0 8.3 81 1.5 CALM 0 0 0 0 1029.5 1029.5 0.0
29/08:00pm 11.8 11.4 8.3 79 1.7 CALM 0 0 0 0 1029.6 1029.6 0.0
29/07:30pm 12.2 11.8 8.1 76 2.0 CALM 0 0 0 0 1029.4 1029.4 0.0
29/07:00pm 13.0 12.5 7.9 71 2.5 CALM 0 0 0 0 1029.2 1029.2 0.0
29/06:30pm 13.9 13.4 7.7 66 3.1 CALM 0 0 0 0 1028.9 1028.9 0.0
29/06:00pm 14.7 14.0 7.0 60 3.7 CALM 0 2 0 1 1028.7 1028.7 0.0
29/05:30pm 16.6 15.5 7.0 53 4.8 E 2 6 1 3 1028.4 1028.4 0.0
29/05:00pm 18.1 16.1 6.9 48 5.6 E 7 11 4 6 1028.1 1028.1 0.0
29/04:30pm 19.2 16.8 7.0 45 6.2 E 9 15 5 8 1027.8 1027.8 0.0
29/04:00pm 20.5 18.7 3.3 32 8.1 S 2 7 1 4 1027.8 1027.8 0.0
29/03:30pm 21.2 18.7 3.9 32 8.3 SSW 6 13 3 7 1027.7 1027.7 0.0
29/03:00pm 20.8 18.1 3.5 32 8.2 SSE 7 13 4 7 1027.9 1027.9 0.0
29/02:30pm 21.3 18.7 4.0 32 8.4 SW 7 17 4 9 1028.1 1028.1 0.0
29/02:00pm 21.1 18.8 4.6 34 8.0 S 6 13 3 7 1028.4 1028.4 0.0
29/01:30pm 20.9 18.7 5.3 36 7.7 SSW 6 11 3 6 1028.5 1028.5 0.0
29/01:00pm 20.8 18.3 4.8 35 7.8 SSW 7 15 4 8 1029.0 1029.0 0.0
29/12:30pm 20.4 18.0 5.2 37 7.5 SSE 7 15 4 8 1029.5 1029.5 0.0
29/12:00pm 19.9 17.8 6.6 42 6.6 S 7 15 4 8 1029.9 1029.9 0.0
29/11:30am 19.1 17.0 5.9 42 6.5 SSW 6 9 3 5 1030.7 1030.7 0.0
29/11:00am 18.2 15.9 5.8 44 6.0 WSW 7 15 4 8 1031.3 1031.3 0.0
29/10:30am 17.1 14.8 5.7 47 5.5 SW 7 13 4 7 1031.8 1031.8 0.0
29/10:00am 16.0 13.1 4.4 46 5.4 SW 9 15 5 8 1032.1 1032.1 0.0
29/09:30am 15.3 12.7 4.4 48 5.1 SW 7 13 4 7 1032.4 1032.4 0.0
29/09:00am 14.0 11.5 4.9 54 4.2 SW 7 15 4 8 1032.4 1032.4 0.0
29/08:30am 12.9 10.5 4.3 56 3.9 SW 6 11 3 6 1032.3 1032.3 0.0
29/08:00am 11.2 8.8 4.2 62 3.1 SW 6 9 3 5 1032.2 1032.2 0.0
29/07:30am 9.7 7.7 4.3 69 2.4 WSW 4 11 2 6 1032.1 1032.1 0.0
29/07:00am 8.3 6.2 3.9 74 1.9 WSW 4 7 2 4 1032.0 1032.0 0.0
29/06:30am 8.2 6.1 3.7 73 1.9 WSW 4 7 2 4 1031.3 1031.3 0.0
29/06:00am 8.7 6.6 3.7 71 2.1 WSW 4 9 2 5 1031.0 1031.0 0.0
29/05:30am 8.5 6.3 3.6 71 2.1 WSW 4 9 2 5 1030.7 1030.7 0.0
29/05:00am 8.6 6.4 3.6 71 2.1 WSW 4 7 2 4 1030.4 1030.4 0.0
29/04:30am 8.7 6.5 3.3 69 2.3 WSW 4 7 2 4 1030.2 1030.2 0.0
29/04:00am 9.1 7.0 3.7 69 2.3 S 4 7 2 4 1030.5 1030.5 0.0
29/03:30am 8.9 6.8 3.9 71 2.2 SW 4 9 2 5 1030.4 1030.4 0.0
29/03:00am 9.3 6.9 4.1 70 2.3 SW 6 7 3 4 1030.6 1030.6 0.0
29/02:30am 9.6 7.3 4.6 71 2.2 SW 6 11 3 6 1030.6 1030.6 0.0
29/02:00am 9.8 7.5 5.0 72 2.1 WSW 6 9 3 5 1030.6 1030.6 0.0
29/01:30am 9.8 8.0 5.2 73 2.1 WSW 4 7 2 4 1030.8 1030.8 0.0
29/01:00am 10.3 8.5 5.5 72 2.2 WSW 4 9 2 5 1030.8 1030.8 0.0
29/12:30am 10.5 8.9 4.6 67 2.6 WSW 2 6 1 3 1030.9 1030.9 0.0
29/12:00am 11.1 8.9 5.4 68 2.6 WSW 6 9 3 5 1030.9 1030.9 0.0
 
Date/Time
EST
Temp
°C
App
Temp
°C
Dew
Point
Rel
Hum
%
Delta-T
°C
Wind Press
QNH
hPa
Press
MSL
hPa
Rain
since 9 am
mm
Dir
 
Spd
km/h
Gust
km/h
Spd
kts
Gust
kts
28/11:30pm 11.2 9.1 5.7 69 2.5 WSW 6 9 3 5 1030.9 1030.9 0.0
28/11:00pm 11.6 9.5 5.9 68 2.6 WSW 6 9 3 5 1031.0 1031.0 0.0
28/10:30pm 10.2 8.8 5.4 72 2.2 WSW 2 6 1 3 1031.0 1031.0 0.0
28/10:00pm 10.0 8.9 5.2 72 2.2 CALM 0 0 0 0 1031.0 1031.0 0.0
28/09:30pm 10.1 9.0 4.9 70 2.3 CALM 0 0 0 0 1031.0 1031.0 0.0
28/09:00pm 10.7 9.6 5.3 69 2.4 CALM 0 0 0 0 1030.9 1030.9 0.0
28/08:30pm 10.9 9.7 4.8 66 2.8 CALM 0 2 0 1 1030.8 1030.8 0.0
28/08:00pm 12.4 11.3 5.1 61 3.3 CALM 0 0 0 0 1030.5 1030.5 0.0
28/07:30pm 12.0 11.0 5.6 65 3.0 CALM 0 2 0 1 1030.5 1030.5 0.0
28/07:00pm 13.6 12.3 6.0 60 3.6 E 2 4 1 2 1030.0 1030.0 0.0
28/06:30pm 14.6 13.0 6.4 58 4.0 E 4 9 2 5 1029.7 1029.7 0.0
28/06:00pm 15.4 13.4 6.4 55 4.3 ESE 6 13 3 7 1029.3 1029.3 0.0
28/05:30pm 15.9 13.9 6.3 53 4.7 E 6 9 3 5 1028.8 1028.8 0.0
28/05:00pm 16.5 13.9 6.3 51 4.9 E 9 17 5 9 1028.6 1028.6 0.0
28/04:30pm 17.4 14.9 6.6 49 5.3 E 9 20 5 11 1028.3 1028.3 0.0
28/04:00pm 18.1 15.2 6.6 47 5.7 ESE 11 22 6 12 1028.1 1028.1 0.0
28/03:30pm 20.8 19.1 6.0 38 7.4 NNW 4 7 2 4 1027.7 1027.7 0.0
28/03:00pm 21.3 19.5 5.6 36 7.8 S 4 9 2 5 1027.6 1027.6 0.0
28/02:30pm 21.0 19.4 6.2 38 7.4 W 4 7 2 4 1027.6 1027.6 0.0
28/02:00pm 20.5 18.5 6.1 39 7.2 S 6 9 3 5 1027.7 1027.7 0.0
28/01:30pm 20.1 18.0 6.8 42 6.7 SSE 7 11 4 6 1028.0 1028.0 0.0
28/01:00pm 19.8 17.1 5.8 40 6.9 SSE 9 15 5 8 1028.3 1028.3 0.0
28/12:30pm 19.5 17.4 6.6 43 6.5 SE 7 15 4 8 1028.7 1028.7 0.0
28/12:00pm 19.3 17.3 7.1 45 6.1 SSE 7 17 4 9 1029.1 1029.1 0.0
28/11:30am 18.9 17.1 7.0 46 6.0 S 6 11 3 6 1029.6 1029.6 0.0
28/11:00am 18.3 16.2 5.8 44 6.1 SSE 6 15 3 8 1030.1 1030.1 0.0
28/10:30am 17.5 15.4 5.8 46 5.7 SSW 6 9 3 5 1030.2 1030.2 0.0
28/10:00am 16.5 13.6 4.9 46 5.5 SSW 9 15 5 8 1030.4 1030.4 0.0
28/09:30am 15.3 12.4 4.4 48 5.1 SW 9 15 5 8 1030.4 1030.4 0.0
28/09:00am 14.8 12.3 4.8 51 4.6 SW 7 13 4 7 1030.2 1030.2 0.0
28/08:30am 12.9 11.0 5.1 59 3.6 SW 4 9 2 5 1030.0 1030.0 0.0
28/08:00am 12.4 9.8 4.4 58 3.6 SW 7 13 4 7 1029.7 1029.7 0.0
28/07:30am 11.5 9.5 4.3 61 3.2 SW 4 7 2 4 1029.4 1029.4 0.0
28/07:00am 10.3 7.8 4.0 65 2.8 SW 6 9 3 5 1028.9 1028.9 0.0
28/06:30am 10.3 8.2 4.0 65 2.8 SW 4 7 2 4 1028.7 1028.7 0.0
28/06:00am 10.4 7.9 3.9 64 2.8 SW 6 11 3 6 1028.3 1028.3 0.0
28/05:30am 10.2 8.1 3.7 64 2.9 SSW 4 9 2 5 1027.9 1027.9 0.0
28/05:00am 10.3 8.6 4.0 65 2.8 SSW 2 7 1 4 1027.9 1027.9 0.0
28/04:30am 10.6 8.5 4.1 64 2.9 SW 4 7 2 4 1027.5 1027.5 0.0
28/04:00am 10.6 9.0 4.3 65 2.8 SW 2 6 1 3 1027.3 1027.3 0.0
28/03:30am 10.9 8.8 4.1 63 3.0 SW 4 9 2 5 1027.0 1027.0 0.0
28/03:00am 11.1 9.5 4.3 63 3.0 SW 2 4 1 2 1026.8 1026.8 0.0
28/02:30am 11.6 9.6 4.6 62 3.2 SW 4 7 2 4 1026.9 1026.9 0.0
28/02:00am 11.9 10.3 4.6 61 3.3 SW 2 6 1 3 1026.9 1026.9 0.0
28/01:30am 12.4 10.5 4.9 60 3.4 WSW 4 9 2 5 1027.1 1027.1 0.0
28/01:00am 13.0 11.1 4.7 57 3.8 SSW 4 9 2 5 1026.9 1026.9 0.0
28/12:30am 12.9 11.0 5.1 59 3.6 SW 4 7 2 4 1026.8 1026.8 0.0
28/12:00am 13.2 11.3 5.1 58 3.7 WSW 4 7 2 4 1026.7 1026.7 0.0
 
Date/Time
EST
Temp
°C
App
Temp
°C
Dew
Point
Rel
Hum
%
Delta-T
°C
Wind Press
QNH
hPa
Press
MSL
hPa
Rain
since 9 am
mm
Dir
 
Spd
km/h
Gust
km/h
Spd
kts
Gust
kts
27/11:30pm 13.7 11.8 5.1 56 4.0 WSW 4 7 2 4 1026.4 1026.4 0.0
27/11:00pm 14.3 11.9 5.4 55 4.2 WSW 7 17 4 9 1026.7 1026.7 0.0
27/10:30pm 14.4 11.7 5.7 56 4.1 W 9 15 5 8 1026.6 1026.6 0.0
27/10:00pm 15.1 12.1 5.9 54 4.4 W 11 20 6 11 1026.5 1026.5 0.0
27/09:30pm 15.5 13.3 6.2 54 4.5 WSW 7 15 4 8 1026.0 1026.0 0.0
27/09:00pm 15.7 13.1 6.2 53 4.6 W 9 17 5 9 1025.8 1025.8 0.0
27/08:30pm 15.8 13.7 6.0 52 4.7 W 6 15 3 8 1025.6 1025.6 0.0
27/08:00pm 14.2 13.2 5.8 57 4.0 CALM 0 0 0 0 1025.3 1025.3 0.0
27/07:30pm 15.7 14.7 5.6 51 4.8 CALM 0 2 0 1 1025.1 1025.1 0.0
27/07:00pm 17.6 16.3 5.9 46 5.7 SSW 2 6 1 3 1024.7 1024.7 0.0
27/06:30pm 17.9 16.3 6.4 47 5.7 WSW 4 9 2 5 1024.3 1024.3 0.0

Other Formats:

Comma delimited format used in spreadsheet applications
http://www.bom.gov.au/fwo/IDQ60801/IDQ60801.94576.axf

JavaScript Object Notation format (JSON) in row-major order
http://www.bom.gov.au/fwo/IDQ60801/IDQ60801.94576.json